Dream Mayreau — F50498P — position and weather

sailwx.info

Track history (hours):
 
Tides and Currents Weather Stations Pressure Air Temp Water Temp Dewpoint Dewpoint Depression Visibility Wind Speed Wind Dir Waves Ship Positions

Dream Mayreau

Last reported at 2018-Jun-18 11:01 UTC. Time now 2018-Jun-19 12:46 UTC.
Position N 17°37' W 062°59'.

Length 18 m.

Type: Sailing vessel. MMSI: 329016740.

Date/timePositionNaut miles runAvg speedWind from/ knotsBaromVisibWave heightAir tempDewpointWater temp
2018-Jun-18 11:01N 17°37' W 062°59'2 8.1
2018-Jun-18 10:43N 17°39' W 063°00'2 7.8
2018-Jun-18 10:25N 17°41' W 063°01'3 8.0
2018-Jun-18 10:00N 17°44' W 063°02'4 7.9
2018-Jun-18 09:30N 17°48' W 063°04'4 8.3
2018-Jun-18 09:00N 17°52' W 063°05'4 8.5
2018-Jun-18 08:29N 17°56' W 063°07'4 8.5
2018-Jun-18 07:59N 18°00' W 063°08'3 6.9
2018-Jun-18 07:29N 18°03' W 063°10'3 6.3
2018-Jun-18 06:59N 18°05' W 063°07'0 0.6
2018-Jun-18 06:27N 18°05' W 063°06'4 7.0
2018-Jun-18 05:56N 18°05' W 063°10'4 6.8
2018-Jun-18 05:25N 18°06' W 063°14'3 6.6
2018-Jun-18 04:55N 18°07' W 063°17'3 6.4
2018-Jun-18 04:24N 18°08' W 063°20'  
2018-Jun-11 14:00N 18°23' W 064°35'2 0.1
2018-Jun-10 22:55N 18°21' W 064°37'10 0.7
2018-Jun-10 07:57N 18°26' W 064°27'308 7.8
2018-Jun-08 16:28N 14°27' W 061°04'5 9.4
2018-Jun-08 15:59N 14°26' W 060°60'4 8.9
2018-Jun-08 15:30N 14°27' W 060°55'3 6.7
2018-Jun-08 14:59N 14°28' W 060°52'0 0.3
2018-Jun-08 14:29N 14°28' W 060°52'0 0.0
2018-Jun-08 13:56N 14°28' W 060°52'0 0.0
2018-Jun-08 13:28N 14°28' W 060°52'  
Track history (hours):
 
Tides and Currents Weather Stations Pressure Air Temp Water Temp Dewpoint Dewpoint Depression Visibility Wind Speed Wind Dir Waves Ship Positions

Dream Mayreau

Last reported at 2018-Jun-18 11:01 UTC. Time now 2018-Jun-19 12:46 UTC.
Position N 17°37' W 062°59'.

Length 18 m.

Type: Sailing vessel. MMSI: 329016740.

Date/timePositionNaut miles runAvg speedWind from/ knotsBaromVisibWave heightAir tempDewpointWater temp
2018-Jun-18 11:01N 17°37' W 062°59'2 8.1
2018-Jun-18 10:43N 17°39' W 063°00'2 7.8
2018-Jun-18 10:25N 17°41' W 063°01'3 8.0
2018-Jun-18 10:00N 17°44' W 063°02'4 7.9
2018-Jun-18 09:30N 17°48' W 063°04'4 8.3
2018-Jun-18 09:00N 17°52' W 063°05'4 8.5
2018-Jun-18 08:29N 17°56' W 063°07'4 8.5
2018-Jun-18 07:59N 18°00' W 063°08'3 6.9
2018-Jun-18 07:29N 18°03' W 063°10'3 6.3
2018-Jun-18 06:59N 18°05' W 063°07'0 0.6
2018-Jun-18 06:27N 18°05' W 063°06'4 7.0
2018-Jun-18 05:56N 18°05' W 063°10'4 6.8
2018-Jun-18 05:25N 18°06' W 063°14'3 6.6
2018-Jun-18 04:55N 18°07' W 063°17'3 6.4
2018-Jun-18 04:24N 18°08' W 063°20'  
2018-Jun-11 14:00N 18°23' W 064°35'2 0.1
2018-Jun-10 22:55N 18°21' W 064°37'10 0.7
2018-Jun-10 07:57N 18°26' W 064°27'308 7.8
2018-Jun-08 16:28N 14°27' W 061°04'5 9.4
2018-Jun-08 15:59N 14°26' W 060°60'4 8.9
2018-Jun-08 15:30N 14°27' W 060°55'3 6.7
2018-Jun-08 14:59N 14°28' W 060°52'0 0.3
2018-Jun-08 14:29N 14°28' W 060°52'0 0.0
2018-Jun-08 13:56N 14°28' W 060°52'0 0.0
2018-Jun-08 13:28N 14°28' W 060°52'  

Dump ship's entire track history